createdAt,value
2023-05-23T00:00:15.744Z,15.96
2023-05-23T00:02:47.030Z,15.88
2023-05-23T00:05:17.984Z,15.77
2023-05-23T00:07:48.462Z,15.68
2023-05-23T00:10:17.632Z,15.76
2023-05-23T00:12:48.073Z,15.65
2023-05-23T00:15:17.542Z,15.73
2023-05-23T00:17:46.940Z,15.66
2023-05-23T00:20:16.907Z,15.65
2023-05-23T00:22:48.369Z,15.60
2023-05-23T00:25:17.513Z,15.55
2023-05-23T00:27:46.630Z,15.55
2023-05-23T00:30:15.855Z,15.52
2023-05-23T00:32:45.458Z,15.43
2023-05-23T00:35:14.597Z,15.47
2023-05-23T00:37:43.821Z,15.45
2023-05-23T00:40:14.807Z,15.41
2023-05-23T00:42:43.903Z,15.36
2023-05-23T00:45:13.594Z,15.27
2023-05-23T00:47:43.454Z,15.31
2023-05-23T00:50:15.619Z,15.30
2023-05-23T00:52:46.366Z,15.37
2023-05-23T00:55:17.090Z,15.43
2023-05-23T00:57:46.300Z,15.32
2023-05-23T01:00:16.574Z,15.39
2023-05-23T01:02:51.287Z,15.20
2023-05-23T01:05:22.688Z,15.13
2023-05-23T01:07:52.687Z,15.15
2023-05-23T01:10:25.133Z,15.11
2023-05-23T01:13:07.080Z,15.14
2023-05-23T01:15:43.423Z,15.16
2023-05-23T01:18:17.626Z,15.03
2023-05-23T01:20:56.017Z,15.05
2023-05-23T01:24:02.488Z,14.89
2023-05-23T01:26:53.153Z,14.97
2023-05-23T01:29:26.822Z,14.95
2023-05-23T01:31:59.257Z,14.89
2023-05-23T01:34:30.058Z,14.97
2023-05-23T01:37:00.626Z,14.98
2023-05-23T01:39:29.756Z,15.02
2023-05-23T01:41:59.301Z,15.08
2023-05-23T01:44:30.164Z,15.15
2023-05-23T01:46:59.557Z,15.05
2023-05-23T01:49:28.837Z,14.94
2023-05-23T01:52:00.228Z,14.92
2023-05-23T01:54:30.637Z,14.88
2023-05-23T01:57:00.177Z,15.00
2023-05-23T01:59:30.831Z,14.92
2023-05-23T02:02:00.717Z,15.02
2023-05-23T02:04:30.048Z,15.16
2023-05-23T02:07:00.928Z,15.16
2023-05-23T02:09:30.069Z,15.20
2023-05-23T02:11:59.543Z,15.23
2023-05-23T02:14:29.991Z,15.26
2023-05-23T02:17:00.446Z,15.21
2023-05-23T02:19:29.741Z,15.22
2023-05-23T02:21:59.117Z,15.23
2023-05-23T02:24:28.316Z,15.25
2023-05-23T02:26:57.586Z,15.35
2023-05-23T02:29:26.859Z,15.32
2023-05-23T02:31:57.554Z,15.28
2023-05-23T02:34:27.236Z,15.31
2023-05-23T02:36:56.754Z,15.40
2023-05-23T02:39:26.104Z,15.46
2023-05-23T02:41:55.476Z,15.45
2023-05-23T02:44:24.705Z,15.49
2023-05-23T02:46:53.959Z,15.28
2023-05-23T02:49:24.514Z,15.21
2023-05-23T02:51:53.824Z,15.13
2023-05-23T02:54:23.163Z,15.07
2023-05-23T02:56:54.753Z,14.96
2023-05-23T02:59:24.761Z,14.97
2023-05-23T03:01:53.916Z,15.01
2023-05-23T03:04:24.461Z,14.89
2023-05-23T03:06:54.322Z,14.86
2023-05-23T03:09:23.527Z,15.00
2023-05-23T03:11:52.682Z,14.75
2023-05-23T03:14:21.831Z,14.78
2023-05-23T03:16:51.706Z,14.84
2023-05-23T03:19:20.914Z,14.45
2023-05-23T03:21:52.329Z,14.65
2023-05-23T03:24:21.508Z,14.72
2023-05-23T03:26:52.123Z,14.66
2023-05-23T03:29:21.319Z,14.70
2023-05-23T03:31:50.602Z,14.62
2023-05-23T03:34:19.787Z,14.73
2023-05-23T03:36:50.971Z,14.59
2023-05-23T03:39:20.200Z,14.66
2023-05-23T03:41:49.370Z,14.66
2023-05-23T03:44:18.948Z,14.63
2023-05-23T03:46:48.150Z,14.65
2023-05-23T03:49:18.628Z,14.54
2023-05-23T03:51:47.873Z,14.59
2023-05-23T03:54:20.095Z,14.55
2023-05-23T03:56:49.293Z,14.58
2023-05-23T03:59:19.336Z,14.34
2023-05-23T04:01:48.961Z,14.47
2023-05-23T04:04:18.446Z,14.44
2023-05-23T04:06:47.790Z,14.50
2023-05-23T04:09:17.036Z,14.56
2023-05-23T04:11:49.998Z,14.52
2023-05-23T04:14:22.476Z,14.34
2023-05-23T04:16:52.066Z,14.46
2023-05-23T04:19:21.622Z,14.32
2023-05-23T04:21:50.814Z,14.40
2023-05-23T04:24:20.985Z,14.39
2023-05-23T04:26:51.436Z,14.31
2023-05-23T04:29:20.597Z,14.30
2023-05-23T04:31:50.923Z,14.33
2023-05-23T04:34:22.302Z,14.32
2023-05-23T04:36:53.870Z,14.37
2023-05-23T04:39:23.050Z,14.31
2023-05-23T04:42:16.120Z,14.21
2023-05-23T04:45:09.181Z,14.00
2023-05-23T04:47:54.891Z,14.16
2023-05-23T04:50:37.833Z,14.05
2023-05-23T04:53:07.199Z,14.07
2023-05-23T04:55:37.408Z,13.93
2023-05-23T04:58:09.822Z,13.98
2023-05-23T05:00:39.492Z,13.91
2023-05-23T05:03:10.072Z,13.94
2023-05-23T05:05:44.123Z,13.86
2023-05-23T05:08:14.368Z,13.89
2023-05-23T05:10:43.788Z,13.89
2023-05-23T05:13:15.513Z,13.86
2023-05-23T05:15:52.817Z,13.80
2023-05-23T05:18:21.982Z,13.96
2023-05-23T05:20:51.172Z,13.78
2023-05-23T05:23:20.941Z,13.99
2023-05-23T05:25:50.619Z,13.97
2023-05-23T05:28:21.839Z,13.89
2023-05-23T05:30:54.518Z,14.01
2023-05-23T05:33:25.242Z,13.97
2023-05-23T05:36:10.464Z,13.87
2023-05-23T05:38:39.695Z,14.10
2023-05-23T05:41:09.475Z,14.07
2023-05-23T05:43:43.715Z,14.15
2023-05-23T05:46:13.011Z,14.00
2023-05-23T05:48:42.869Z,14.01
2023-05-23T05:51:14.523Z,13.92
2023-05-23T05:53:44.631Z,13.92
2023-05-23T05:56:13.978Z,14.12
2023-05-23T05:58:44.520Z,14.03
2023-05-23T06:01:16.227Z,14.00
2023-05-23T06:03:45.672Z,13.85
2023-05-23T06:06:14.998Z,14.03
2023-05-23T06:08:44.693Z,13.94
2023-05-23T06:11:17.992Z,14.09
2023-05-23T06:13:48.757Z,14.09
2023-05-23T06:16:17.929Z,14.12
2023-05-23T06:18:47.856Z,14.24
2023-05-23T06:21:17.603Z,14.09
2023-05-23T06:23:52.386Z,14.06
2023-05-23T06:26:21.462Z,14.27
2023-05-23T06:28:51.958Z,14.25
2023-05-23T06:31:21.048Z,14.23
2023-05-23T06:33:51.076Z,14.17
2023-05-23T06:36:20.180Z,14.18
2023-05-23T06:38:50.785Z,14.28
2023-05-23T06:41:20.274Z,14.20
2023-05-23T06:43:50.803Z,14.28
2023-05-23T06:46:27.957Z,14.31
2023-05-23T06:49:10.638Z,14.39
2023-05-23T06:51:44.180Z,14.31
2023-05-23T06:54:13.750Z,14.49
2023-05-23T06:56:43.170Z,14.39
2023-05-23T06:59:13.690Z,14.56
2023-05-23T07:01:42.995Z,14.44
2023-05-23T07:04:13.491Z,14.40
2023-05-23T07:06:43.059Z,14.41
2023-05-23T07:09:13.141Z,14.67
2023-05-23T07:11:43.367Z,14.49
2023-05-23T07:14:14.622Z,14.50
2023-05-23T07:16:46.677Z,14.51
2023-05-23T07:19:16.059Z,14.50
2023-05-23T07:21:49.454Z,14.18
2023-05-23T07:24:20.451Z,14.32
2023-05-23T07:26:50.030Z,14.30
2023-05-23T07:29:21.208Z,14.30
2023-05-23T07:31:52.093Z,14.28
2023-05-23T07:34:23.079Z,14.38
2023-05-23T07:36:56.484Z,14.32
2023-05-23T07:39:28.135Z,14.16
2023-05-23T07:41:59.267Z,14.25
2023-05-23T07:44:30.566Z,14.33
2023-05-23T07:46:59.840Z,14.24
2023-05-23T07:49:29.219Z,14.34
2023-05-23T07:51:59.063Z,14.45
2023-05-23T07:54:28.312Z,14.68
2023-05-23T07:57:01.991Z,14.48
2023-05-23T07:59:32.535Z,14.63
2023-05-23T08:02:02.041Z,14.46
2023-05-23T08:04:32.396Z,14.47
2023-05-23T08:07:05.449Z,14.47
2023-05-23T08:10:01.350Z,14.13
2023-05-23T08:12:30.445Z,14.28
2023-05-23T08:15:13.159Z,14.41
2023-05-23T08:17:49.645Z,14.61
2023-05-23T08:20:19.795Z,14.65
2023-05-23T08:22:48.956Z,14.66
2023-05-23T08:25:18.131Z,14.74
2023-05-23T08:27:47.224Z,14.53
2023-05-23T08:30:40.909Z,14.45
2023-05-23T08:33:10.349Z,14.47
2023-05-23T08:35:41.648Z,14.72
2023-05-23T08:38:13.124Z,14.98
2023-05-23T08:40:53.113Z,14.99
2023-05-23T08:43:24.133Z,15.03
2023-05-23T08:45:55.987Z,14.92
2023-05-23T08:48:27.708Z,14.82
2023-05-23T08:50:59.443Z,14.75
2023-05-23T08:53:30.084Z,14.62
2023-05-23T08:56:07.922Z,14.47
2023-05-23T08:58:48.017Z,14.53
2023-05-23T09:01:23.279Z,14.29
2023-05-23T09:03:55.432Z,14.20
2023-05-23T09:06:32.222Z,14.35
2023-05-23T09:09:01.942Z,14.18
2023-05-23T09:11:36.384Z,14.16
2023-05-23T09:14:08.261Z,13.98
2023-05-23T09:16:39.725Z,13.92
2023-05-23T09:19:15.851Z,13.60
2023-05-23T09:21:54.431Z,13.68
2023-05-23T09:24:36.821Z,13.58
2023-05-23T09:27:08.772Z,13.19
2023-05-23T09:29:40.531Z,12.89
2023-05-23T09:32:14.864Z,12.86
2023-05-23T09:34:44.199Z,12.84
2023-05-23T09:37:19.300Z,12.70
2023-05-23T09:39:49.712Z,12.71
2023-05-23T09:42:23.934Z,12.64
2023-05-23T09:44:53.014Z,12.85
2023-05-23T09:47:23.610Z,12.81
2023-05-23T09:49:52.742Z,12.60
2023-05-23T09:52:23.294Z,12.70
2023-05-23T09:54:52.728Z,12.75
2023-05-23T09:57:24.823Z,12.59
2023-05-23T09:59:55.358Z,12.83
2023-05-23T10:02:54.941Z,12.74
2023-05-23T10:05:34.821Z,12.54
2023-05-23T10:08:10.674Z,12.74
2023-05-23T10:11:34.748Z,12.72
2023-05-23T10:14:07.698Z,12.68
2023-05-23T10:16:45.237Z,12.61
2023-05-23T10:19:24.856Z,12.84
2023-05-23T10:22:00.514Z,12.71
2023-05-23T10:24:30.154Z,12.84
2023-05-23T10:27:00.497Z,12.81
2023-05-23T10:29:30.751Z,12.72
2023-05-23T10:32:02.630Z,12.67
2023-05-23T10:34:40.199Z,12.52
2023-05-23T10:37:13.524Z,12.77
2023-05-23T10:39:56.611Z,12.97
2023-05-23T10:42:41.804Z,12.98
2023-05-23T10:45:19.088Z,12.76
2023-05-23T10:47:49.525Z,12.96
2023-05-23T10:50:33.937Z,12.90
2023-05-23T10:53:04.171Z,12.89
2023-05-23T10:55:35.400Z,13.30
2023-05-23T10:58:12.725Z,13.04
2023-05-23T11:00:48.446Z,12.90
2023-05-23T11:03:19.149Z,12.97
2023-05-23T11:05:54.760Z,12.95
2023-05-23T11:08:32.549Z,13.35
2023-05-23T11:11:12.932Z,13.37
2023-05-23T11:14:01.062Z,13.42
2023-05-23T11:16:32.133Z,13.47
2023-05-23T11:19:25.939Z,13.58
2023-05-23T11:22:01.912Z,13.78
2023-05-23T11:24:50.066Z,13.82
2023-05-23T11:27:26.652Z,14.37
2023-05-23T11:30:08.187Z,13.96
2023-05-23T11:32:38.088Z,14.42
2023-05-23T11:35:10.044Z,14.45
2023-05-23T11:37:41.602Z,15.21
2023-05-23T11:40:31.184Z,15.12
2023-05-23T11:43:01.480Z,14.74
2023-05-23T11:45:31.952Z,14.86
2023-05-23T11:48:06.104Z,16.17
2023-05-23T11:50:35.800Z,16.42
2023-05-23T11:53:06.719Z,16.20
2023-05-23T11:55:35.861Z,15.40
2023-05-23T11:58:04.986Z,15.77
2023-05-23T12:00:34.060Z,15.02
2023-05-23T12:03:09.549Z,14.81
2023-05-23T12:05:38.937Z,15.27
2023-05-23T12:08:13.694Z,15.57
2023-05-23T12:10:52.480Z,14.75
2023-05-23T12:13:21.650Z,14.30
2023-05-23T12:15:50.864Z,14.68
2023-05-23T12:18:22.267Z,15.20
2023-05-23T12:20:53.029Z,15.41
2023-05-23T12:23:24.746Z,15.79
2023-05-23T12:25:55.041Z,15.26
2023-05-23T12:28:36.818Z,15.39
2023-05-23T12:31:13.686Z,15.34
2023-05-23T12:33:43.957Z,15.80
2023-05-23T12:36:13.562Z,15.90
2023-05-23T12:38:46.301Z,15.93
2023-05-23T12:41:19.508Z,15.57
2023-05-23T12:43:52.683Z,15.32
2023-05-23T12:46:23.026Z,15.42
2023-05-23T12:48:52.779Z,16.73
2023-05-23T12:51:22.229Z,15.63
2023-05-23T12:53:52.717Z,15.94
2023-05-23T12:56:23.226Z,16.30
2023-05-23T12:58:53.768Z,16.17
2023-05-23T13:01:23.435Z,15.68
2023-05-23T13:03:52.557Z,15.51
2023-05-23T13:06:21.854Z,15.15
2023-05-23T13:08:54.480Z,15.28
2023-05-23T13:11:23.948Z,14.58
2023-05-23T13:13:53.054Z,14.77
2023-05-23T13:16:22.404Z,14.41
2023-05-23T13:18:51.621Z,15.03
2023-05-23T13:21:20.868Z,15.81
2023-05-23T13:23:49.972Z,15.94
2023-05-23T13:26:20.725Z,15.43
2023-05-23T13:28:50.081Z,14.73
2023-05-23T13:31:19.391Z,14.49
2023-05-23T13:33:48.492Z,14.56
2023-05-23T13:36:17.622Z,14.75
2023-05-23T13:38:46.695Z,14.48
2023-05-23T13:41:15.842Z,15.02
2023-05-23T13:43:46.259Z,14.95
2023-05-23T13:46:15.519Z,15.92
2023-05-23T13:48:44.741Z,15.45
2023-05-23T13:51:13.885Z,14.69
2023-05-23T13:53:43.103Z,14.65
2023-05-23T13:56:12.402Z,14.74
2023-05-23T13:58:42.895Z,14.95
2023-05-23T14:01:13.396Z,14.77
2023-05-23T14:03:42.656Z,14.47
2023-05-23T14:06:11.804Z,14.75
2023-05-23T14:08:41.152Z,14.94
2023-05-23T14:11:10.997Z,14.95
2023-05-23T14:13:40.082Z,15.03
2023-05-23T14:16:09.343Z,14.69
2023-05-23T14:18:39.767Z,14.48
2023-05-23T14:21:08.889Z,14.59
2023-05-23T14:23:38.076Z,14.81
2023-05-23T14:26:07.608Z,14.65
2023-05-23T14:28:36.728Z,14.31
2023-05-23T14:31:06.073Z,15.22
2023-05-23T14:33:35.867Z,14.45
2023-05-23T14:36:06.871Z,14.37
2023-05-23T14:38:35.988Z,14.52
2023-05-23T14:41:05.096Z,14.37
2023-05-23T14:43:34.198Z,14.26
2023-05-23T14:46:03.377Z,14.02
2023-05-23T14:48:32.490Z,14.23
2023-05-23T14:51:01.952Z,14.41
2023-05-23T14:53:32.595Z,14.09
2023-05-23T14:56:01.702Z,14.94
2023-05-23T14:58:30.798Z,14.53
2023-05-23T15:00:59.927Z,14.33
2023-05-23T15:03:29.253Z,14.33
2023-05-23T15:05:58.342Z,14.39
2023-05-23T15:08:27.652Z,14.14
2023-05-23T15:10:58.166Z,13.83
2023-05-23T15:13:27.252Z,13.96
2023-05-23T15:15:56.654Z,13.94
2023-05-23T15:18:38.778Z,13.80
2023-05-23T15:21:10.676Z,13.77
2023-05-23T15:23:39.775Z,13.77
2023-05-23T15:26:10.267Z,14.39
2023-05-23T15:28:39.315Z,14.25
2023-05-23T15:31:08.450Z,14.02
2023-05-23T15:33:37.586Z,13.86
2023-05-23T15:36:07.275Z,13.83
2023-05-23T15:38:36.364Z,13.44
2023-05-23T15:41:06.308Z,13.19
2023-05-23T15:43:37.252Z,13.26
2023-05-23T15:46:06.685Z,13.35
2023-05-23T15:48:37.905Z,13.29
2023-05-23T15:51:07.452Z,13.54
2023-05-23T15:53:47.842Z,13.67
2023-05-23T15:56:25.969Z,13.42
2023-05-23T15:58:56.537Z,13.12
2023-05-23T16:01:25.704Z,13.12
2023-05-23T16:03:54.866Z,13.18
2023-05-23T16:06:25.243Z,13.02
2023-05-23T16:08:54.384Z,13.31
2023-05-23T16:11:24.039Z,13.82
2023-05-23T16:13:53.457Z,13.62
2023-05-23T16:16:24.057Z,13.79
2023-05-23T16:18:53.329Z,13.78
2023-05-23T16:21:22.625Z,13.69
2023-05-23T16:23:51.808Z,13.53
2023-05-23T16:26:21.255Z,13.18
2023-05-23T16:28:50.710Z,13.23
2023-05-23T16:31:26.102Z,13.29
2023-05-23T16:33:56.796Z,13.30
2023-05-23T16:36:25.882Z,12.95
2023-05-23T16:38:55.706Z,12.84
2023-05-23T16:41:25.190Z,13.08
2023-05-23T16:43:54.290Z,12.87
2023-05-23T16:46:23.857Z,12.69
2023-05-23T16:48:53.040Z,12.92
2023-05-23T16:51:23.583Z,13.07
2023-05-23T16:53:53.019Z,12.96
2023-05-23T16:56:22.953Z,12.90
2023-05-23T16:58:52.281Z,12.92
2023-05-23T17:01:21.692Z,12.82
2023-05-23T17:03:51.207Z,12.82
2023-05-23T17:06:24.260Z,12.80
2023-05-23T17:08:53.357Z,12.66
2023-05-23T17:11:22.907Z,12.84
2023-05-23T17:13:52.155Z,13.01
2023-05-23T17:16:21.379Z,12.75
2023-05-23T17:18:50.740Z,12.89
2023-05-23T17:21:20.035Z,12.93
2023-05-23T17:23:50.485Z,12.86
2023-05-23T17:26:19.992Z,12.83
2023-05-23T17:28:49.222Z,12.72
2023-05-23T17:31:18.414Z,12.53
2023-05-23T17:33:47.839Z,12.19
2023-05-23T17:36:16.940Z,12.19
2023-05-23T17:38:46.084Z,12.24
2023-05-23T17:41:16.836Z,12.29
2023-05-23T17:43:45.955Z,12.12
2023-05-23T17:46:15.125Z,12.28
2023-05-23T17:48:46.959Z,12.46
2023-05-23T17:51:17.392Z,12.33
2023-05-23T17:53:46.478Z,12.24
2023-05-23T17:56:16.999Z,12.07
2023-05-23T17:58:46.100Z,12.06
2023-05-23T18:01:15.210Z,11.99
2023-05-23T18:03:44.500Z,11.81
2023-05-23T18:06:13.726Z,11.87
2023-05-23T18:08:42.956Z,11.93
2023-05-23T18:11:12.028Z,11.95
2023-05-23T18:13:43.141Z,11.75
2023-05-23T18:16:12.480Z,11.84
2023-05-23T18:18:41.853Z,11.57
2023-05-23T18:21:11.150Z,11.54
2023-05-23T18:23:40.314Z,11.59
2023-05-23T18:26:09.806Z,11.49
2023-05-23T18:28:38.897Z,11.60
2023-05-23T18:31:09.440Z,11.63
2023-05-23T18:33:38.543Z,11.37
2023-05-23T18:36:08.719Z,11.43
2023-05-23T18:38:38.208Z,11.29
2023-05-23T18:41:07.460Z,11.32
2023-05-23T18:43:36.623Z,11.38
2023-05-23T18:46:05.754Z,11.46
2023-05-23T18:48:36.536Z,11.32
2023-05-23T18:51:06.855Z,11.26
2023-05-23T18:53:36.145Z,11.18
2023-05-23T18:56:05.514Z,11.13
2023-05-23T18:58:34.578Z,11.12
2023-05-23T19:01:03.949Z,11.31
2023-05-23T19:03:34.553Z,11.10
2023-05-23T19:06:05.363Z,11.12
2023-05-23T19:08:34.804Z,11.13
2023-05-23T19:11:04.767Z,11.05
2023-05-23T19:13:33.894Z,11.04
2023-05-23T19:16:03.022Z,11.10
2023-05-23T19:18:32.438Z,11.03
2023-05-23T19:21:01.787Z,10.76
2023-05-23T19:23:32.605Z,10.94
2023-05-23T19:26:02.173Z,10.83
2023-05-23T19:28:31.268Z,10.95
2023-05-23T19:31:00.391Z,10.91
2023-05-23T19:33:29.581Z,10.94
2023-05-23T19:35:58.913Z,10.89
2023-05-23T19:38:28.193Z,10.79
2023-05-23T19:40:58.897Z,10.87
2023-05-23T19:43:28.086Z,10.87
2023-05-23T19:45:57.171Z,10.78
2023-05-23T19:48:26.511Z,10.89
2023-05-23T19:50:55.596Z,10.72
2023-05-23T19:53:24.784Z,10.79
2023-05-23T19:55:54.094Z,10.67
2023-05-23T19:58:24.857Z,10.71
2023-05-23T20:00:53.929Z,10.70
2023-05-23T20:03:23.249Z,10.86
2023-05-23T20:05:52.612Z,10.89
2023-05-23T20:08:22.002Z,10.69
2023-05-23T20:10:51.279Z,10.78
2023-05-23T20:13:21.145Z,10.73
2023-05-23T20:15:51.939Z,10.84
2023-05-23T20:18:21.528Z,10.71
2023-05-23T20:20:50.829Z,10.74
2023-05-23T20:23:19.944Z,10.73
2023-05-23T20:25:49.017Z,10.71
2023-05-23T20:28:18.125Z,10.74
2023-05-23T20:30:47.315Z,10.70
2023-05-23T20:33:18.071Z,10.78
2023-05-23T20:35:48.245Z,10.74
2023-05-23T20:38:18.643Z,10.63
2023-05-23T20:40:51.491Z,10.77
2023-05-23T20:43:22.227Z,10.63
2023-05-23T20:45:51.493Z,10.58
2023-05-23T20:48:22.204Z,10.58
2023-05-23T20:50:51.440Z,10.56
2023-05-23T20:53:20.488Z,10.52
2023-05-23T20:55:49.561Z,10.55
2023-05-23T20:58:18.788Z,10.38
2023-05-23T21:00:47.979Z,10.54
2023-05-23T21:03:17.303Z,10.38
2023-05-23T21:05:48.065Z,10.49
2023-05-23T21:08:17.296Z,10.29
2023-05-23T21:10:49.795Z,10.37
2023-05-23T21:13:20.747Z,10.33
2023-05-23T21:15:50.141Z,10.22
2023-05-23T21:18:19.342Z,10.31
2023-05-23T21:20:50.535Z,10.23
2023-05-23T21:23:19.616Z,10.24
2023-05-23T21:25:48.888Z,10.02
2023-05-23T21:28:18.064Z,10.05
2023-05-23T21:30:47.653Z,10.13
2023-05-23T21:33:17.015Z,10.07
2023-05-23T21:35:46.217Z,10.11
2023-05-23T21:38:16.700Z,10.06
2023-05-23T21:40:45.940Z,10.05
2023-05-23T21:43:15.064Z,10.04
2023-05-23T21:45:44.095Z,10.03
2023-05-23T21:48:13.172Z,9.94
2023-05-23T21:50:42.461Z,9.97
2023-05-23T21:53:11.759Z,9.90
2023-05-23T21:55:42.291Z,10.04
2023-05-23T21:58:11.458Z,10.04
2023-05-23T22:00:40.741Z,9.98
2023-05-23T22:03:10.009Z,10.03
2023-05-23T22:05:39.176Z,9.85
2023-05-23T22:08:08.646Z,9.92
2023-05-23T22:10:37.788Z,9.85
2023-05-23T22:13:09.524Z,9.91
2023-05-23T22:15:38.564Z,9.85
2023-05-23T22:18:07.791Z,9.93
2023-05-23T22:20:38.956Z,9.87
2023-05-23T22:23:09.753Z,9.86
2023-05-23T22:25:38.938Z,9.87
2023-05-23T22:28:09.410Z,9.83
2023-05-23T22:30:38.510Z,9.91
2023-05-23T22:33:12.878Z,9.85
2023-05-23T22:35:42.424Z,9.82
2023-05-23T22:38:11.880Z,9.75
2023-05-23T22:40:41.185Z,9.66
2023-05-23T22:43:11.854Z,9.73
2023-05-23T22:45:42.439Z,9.78
2023-05-23T22:48:12.267Z,9.71
2023-05-23T22:50:41.646Z,9.83
2023-05-23T22:53:11.576Z,9.93
2023-05-23T22:55:40.707Z,9.82
2023-05-23T22:58:11.242Z,9.82
2023-05-23T23:00:40.503Z,9.85
2023-05-23T23:03:09.845Z,9.82
2023-05-23T23:05:39.144Z,9.74
2023-05-23T23:08:08.458Z,9.82
2023-05-23T23:10:37.520Z,9.76
2023-05-23T23:13:06.656Z,9.73
2023-05-23T23:15:37.434Z,9.83
2023-05-23T23:18:06.782Z,9.92
2023-05-23T23:20:36.548Z,9.86
2023-05-23T23:23:05.783Z,9.87
2023-05-23T23:25:36.204Z,9.69
2023-05-23T23:28:06.680Z,9.82
2023-05-23T23:30:37.241Z,9.83
2023-05-23T23:33:06.357Z,9.79
2023-05-23T23:35:35.528Z,9.90
2023-05-23T23:38:04.823Z,9.80
2023-05-23T23:40:33.896Z,9.85
2023-05-23T23:43:02.968Z,9.81
2023-05-23T23:45:32.055Z,9.87
2023-05-23T23:48:02.631Z,9.76
2023-05-23T23:50:32.335Z,9.80
2023-05-23T23:53:01.389Z,9.75
2023-05-23T23:55:30.778Z,9.79
2023-05-23T23:58:00.203Z,9.77
